Arlington Heights, IL (60004)

8:55 AM CDT on September 29, 2016 (GMT -0500)
Northgate | | Change Station

Elev 696 ft 42.13 °N, 87.97 °W | Updated 4 minutes ago

Overcast
Overcast
61.0 °F
Feels Like 61.0 °F
N
1.7
Wind Variable Wind from West

Today
High -- | Low -- °F
--% Chance of Precip.
Yesterday
High -- | Low -- °F
Precip. -- in
Pressure 30.18 in
Visibility 10.0 miles
Clouds Mostly Cloudy 1800 ft
Overcast 2500 ft
Dew Point 57 °F
Humidity 88%
Rainfall 0.00 in
Snow Depth Not available.
6:47 AM 6:36 PM
Waning Crescent, 2% visible
METAR KPWK 291352Z 01012G20KT 10SM BKN018 OVC025 17/13 A3017 RMK AO2 SLP218 T01670133
Pressure 30.18 in
Visibility 10.0 miles
Clouds Mostly Cloudy 1800 ft
Overcast 2500 ft
Dew Point 57 °F
Humidity 88%
Rainfall 0.00 in
Snow Depth Not available.
6:47 AM 6:36 PM
Waning Crescent, 2% visible
METAR KPWK 291352Z 01012G20KT 10SM BKN018 OVC025 17/13 A3017 RMK AO2 SLP218 T01670133

10-Day Weather Forecast

Almanac

Astronomy

Sep. 29, 2016 Rise Set
Actual Time
Civil Twilight
Nautical Twilight
Astronomical Twilight
Moon
Length of Visible Light
Length of Day
Tomorrow will be .
, % of the Moon is Illuminated

Today's Extremes

State Highs State Lows

Community

WunderPhotos

Upload Photos

1,942,470 photos uploaded!

WunderBlog® & News

Nearby

Air Quality

  Air Quality AQ Index Pollutant
Not available.

Snow Depth

Station Depth Elevation

Earthquake Activity

City Distance Mag. Time & Date
Minimum magnitude displayed is 2.5.

Coastal Water Temperatures

Place Temperature

Stations

Nearby Weather Stations

Station Location Temp. Windchill Dew Point Humidity Wind Precip. Elev Updated Type
                   

Watches & Warnings

There are currently no watches in effect.